Time;durP1;ratioP1;P1;durP2;ratioP2;P2;SDS_P1;SDS_P2;PMS_P1;PMS_P2;Temp;Humidity;BMP_temperature;BMP_pressure;BME280_temperature;BME280_humidity;BME280_pressure;Samples;Min_cycle;Max_cycle;Signal;HPM_P1;HPM_P2
2022/05/11 00:01:42;;;;;;;5.00;3.47;;;17.20;79.60;;;;;;2612201;54;20455;-81
2022/05/11 00:04:10;;;;;;;4.10;3.80;;;17.20;78.30;;;;;;2611611;54;20409;-74
2022/05/11 00:06:37;;;;;;;5.10;4.27;;;17.20;89.90;;;;;;2610476;54;20396;-74
2022/05/11 00:09:04;;;;;;;3.80;3.17;;;17.30;86.50;;;;;;2611683;54;20404;-82
2022/05/11 00:11:30;;;;;;;8.87;3.90;;;17.40;78.50;;;;;;2612545;54;20401;-82
2022/05/11 00:13:57;;;;;;;3.63;3.30;;;17.50;76.10;;;;;;2611428;54;20674;-78
2022/05/11 00:16:24;;;;;;;10.10;4.10;;;17.60;75.20;;;;;;2611769;54;21352;-77
2022/05/11 00:18:50;;;;;;;4.57;4.00;;;17.50;80.70;;;;;;2610561;39;21207;-75
2022/05/11 00:21:16;;;;;;;4.60;4.20;;;17.40;78.50;;;;;;2612022;54;20422;-73
2022/05/11 00:23:42;;;;;;;10.93;4.37;;;17.40;80.80;;;;;;2610798;54;20140;-78
2022/05/11 00:26:08;;;;;;;8.03;4.57;;;17.20;71.40;;;;;;2610740;47;20401;-77
2022/05/11 00:28:34;;;;;;;4.40;3.90;;;17.20;74.70;;;;;;2612529;47;20427;-80
2022/05/11 00:31:01;;;;;;;5.67;3.93;;;17.10;66.70;;;;;;2613043;54;20167;-82
2022/05/11 00:33:26;;;;;;;5.23;4.03;;;17.20;67.60;;;;;;2612728;54;20409;-79
2022/05/11 00:35:53;;;;;;;4.30;3.93;;;17.10;69.60;;;;;;2612776;54;20418;-80
2022/05/11 00:38:22;;;;;;;4.83;4.17;;;17.20;71.20;;;;;;2614031;47;20174;-79
2022/05/11 00:40:50;;;;;;;4.40;4.00;;;17.20;72.70;;;;;;2613796;54;20389;-79
2022/05/11 00:43:31;;;;;;;5.00;4.60;;;17.00;68.20;;;;;;2612539;54;21003;-79
2022/05/11 00:46:18;;;;;;;5.67;4.47;;;17.00;69.50;;;;;;2611230;51;20410;-73
2022/05/11 00:51:39;;;;;;;4.27;3.53;;;17.10;67.70;;;;;;2613256;54;20396;-82
2022/05/11 00:54:07;;;;;;;4.40;3.50;;;17.10;67.50;;;;;;2612761;54;20475;-76
2022/05/11 00:56:38;;;;;;;6.10;4.10;;;17.10;67.30;;;;;;2609926;54;20444;-76
2022/05/11 00:59:12;;;;;;;4.50;4.10;;;17.20;67.70;;;;;;2611201;46;20501;-80
2022/05/11 01:01:39;;;;;;;8.03;3.73;;;17.20;63.50;;;;;;2613612;39;20769;-83
2022/05/11 01:04:15;;;;;;;4.50;3.87;;;17.30;67.20;;;;;;2613604;54;20391;-84
2022/05/11 01:06:42;;;;;;;5.10;4.37;;;17.10;69.90;;;;;;2613926;54;20404;-81
2022/05/11 01:09:10;;;;;;;4.47;4.07;;;17.10;74.10;;;;;;2613917;47;20380;-81
2022/05/11 01:11:43;;;;;;;10.63;4.20;;;17.10;77.20;;;;;;2612250;54;20874;-72
2022/05/11 01:14:11;;;;;;;6.37;4.03;;;17.20;71.20;;;;;;2611779;54;21076;-72
2022/05/11 01:16:38;;;;;;;4.60;3.77;;;17.10;74.30;;;;;;2612795;54;20448;-81
2022/05/11 01:19:05;;;;;;;5.50;4.37;;;17.10;74.60;;;;;;2613609;54;20435;-80
2022/05/11 01:21:50;;;;;;;4.70;4.37;;;17.10;75.60;;;;;;2612393;54;20386;-73
2022/05/11 01:24:27;;;;;;;5.23;4.20;;;17.10;68.70;;;;;;2610801;46;20408;-75
2022/05/11 01:26:55;;;;;;;9.20;5.43;;;16.90;66.10;;;;;;2613163;47;20404;-82
2022/05/11 01:29:20;;;;;;;5.10;4.60;;;16.90;67.10;;;;;;2613046;51;20422;-83
2022/05/11 01:31:46;;;;;;;4.63;4.07;;;16.80;68.50;;;;;;2612516;54;20992;-76
2022/05/11 01:34:18;;;;;;;4.97;4.10;;;16.80;69.80;;;;;;2612204;54;20148;-75
2022/05/11 01:36:48;;;;;;;7.70;4.33;;;16.80;70.20;;;;;;2614137;54;20149;-84
2022/05/11 01:39:14;;;;;;;7.33;4.80;;;16.80;70.50;;;;;;2615436;39;20768;-83
2022/05/11 01:41:49;;;;;;;5.03;4.60;;;16.90;70.00;;;;;;2613221;54;20500;-76
2022/05/11 01:44:18;;;;;;;4.87;4.20;;;17.00;70.10;;;;;;2612414;51;20159;-76
2022/05/11 01:46:48;;;;;;;6.40;3.93;;;17.00;70.90;;;;;;2612563;54;20413;-79
2022/05/11 01:49:15;;;;;;;4.63;4.23;;;17.00;71.20;;;;;;2613680;54;20390;-79
2022/05/11 01:51:41;;;;;;;7.37;4.27;;;17.10;68.60;;;;;;2612609;54;20429;-76
2022/05/11 01:54:07;;;;;;;9.60;4.60;;;17.10;66.00;;;;;;2612832;54;20434;-75
2022/05/11 01:56:33;;;;;;;7.10;5.20;;;17.20;66.50;;;;;;2612663;54;20943;-76
2022/05/11 01:58:59;;;;;;;8.20;4.53;;;17.20;67.20;;;;;;2611123;54;20398;-76
2022/05/11 02:01:28;;;;;;;5.73;4.63;;;17.30;68.70;;;;;;2612297;54;20409;-77
2022/05/11 02:03:55;;;;;;;10.03;4.60;;;17.30;68.90;;;;;;2611618;54;20516;-77
2022/05/11 02:09:08;;;;;;;7.87;4.90;;;17.30;61.00;;;;;;2611175;54;20421;-77
2022/05/11 02:11:34;;;;;;;4.70;4.30;;;17.20;64.30;;;;;;2613203;54;20410;-79
2022/05/11 02:14:01;;;;;;;8.40;4.57;;;17.20;65.50;;;;;;2612632;54;20417;-80
2022/05/11 02:16:27;;;;;;;5.40;4.50;;;17.00;65.80;;;;;;2611639;54;21536;-78
2022/05/11 02:18:56;;;;;;;4.87;4.40;;;17.10;67.00;;;;;;2611424;54;20397;-77
2022/05/11 02:21:23;;;;;;;4.63;4.17;;;17.00;63.60;;;;;;2611851;54;20494;-76
2022/05/11 02:23:50;;;;;;;5.03;4.53;;;17.00;70.70;;;;;;2611741;54;20440;-76
2022/05/11 02:26:16;;;;;;;8.20;4.00;;;16.90;72.20;;;;;;2610873;54;20377;-77
2022/05/11 02:28:43;;;;;;;5.17;4.50;;;16.90;70.60;;;;;;2611979;54;20402;-77
2022/05/11 02:31:09;;;;;;;5.30;4.80;;;16.90;71.20;;;;;;2612374;46;20405;-79
2022/05/11 02:33:35;;;;;;;4.43;3.90;;;16.90;70.40;;;;;;2613554;54;20422;-72
2022/05/11 02:36:02;;;;;;;5.70;4.83;;;16.90;71.20;;;;;;2611849;54;20495;-72
2022/05/11 02:38:33;;;;;;;5.90;4.47;;;16.80;74.20;;;;;;2611704;47;20402;-82
2022/05/11 02:40:59;;;;;;;5.73;4.40;;;16.60;75.20;;;;;;2615378;54;20417;-84
2022/05/11 02:43:26;;;;;;;4.37;3.93;;;16.70;74.50;;;;;;2615912;54;20397;-76
2022/05/11 02:45:52;;;;;;;5.67;5.10;;;16.60;72.70;;;;;;2612128;54;20490;-76
2022/05/11 02:48:21;;;;;;;8.13;4.90;;;16.50;73.60;;;;;;2611089;39;20766;-73
2022/05/11 02:50:50;;;;;;;9.90;4.17;;;16.50;76.60;;;;;;2610634;54;20397;-72
2022/05/11 02:53:18;;;;;;;5.63;5.03;;;16.60;76.40;;;;;;2610745;39;20890;-80
2022/05/11 02:55:47;;;;;;;5.03;4.53;;;16.50;77.50;;;;;;2611954;54;20401;-79
2022/05/11 02:58:16;;;;;;;5.03;4.53;;;16.60;77.60;;;;;;2613244;54;20378;-79
2022/05/11 03:00:45;;;;;;;8.10;4.90;;;16.70;78.60;;;;;;2613656;39;20766;-79
2022/05/11 03:03:14;;;;;;;6.40;5.63;;;16.60;79.50;;;;;;2613759;39;20765;-79
2022/05/11 03:05:41;;;;;;;8.73;5.27;;;16.60;73.30;;;;;;2612863;54;20388;-79
2022/05/11 03:08:08;;;;;;;5.50;4.83;;;16.60;75.20;;;;;;2615863;54;20394;-79
2022/05/11 03:10:37;;;;;;;4.77;4.37;;;16.60;72.80;;;;;;2619802;39;20815;-84
2022/05/11 03:13:04;;;;;;;6.63;4.87;;;16.60;76.00;;;;;;2619372;54;20396;-84
2022/05/11 03:15:31;;;;;;;5.90;4.90;;;16.70;72.00;;;;;;2619314;54;20422;-83
2022/05/11 03:17:58;;;;;;;4.20;3.80;;;16.60;72.70;;;;;;2620858;54;20401;-85
2022/05/11 03:20:26;;;;;;;7.17;5.10;;;16.60;70.90;;;;;;2612356;47;20403;-72
2022/05/11 03:22:52;;;;;;;5.90;4.40;;;16.50;71.90;;;;;;2611442;39;20806;-72
2022/05/11 03:25:19;;;;;;;6.60;4.60;;;16.40;70.10;;;;;;2612298;47;20412;-76
2022/05/11 03:27:46;;;;;;;6.83;4.93;;;16.40;67.90;;;;;;2609894;54;20403;-76
2022/05/11 03:30:13;;;;;;;5.07;4.47;;;16.40;73.90;;;;;;2612329;39;20679;-77
2022/05/11 03:35:23;;;;;;;7.93;4.03;;;16.60;68.90;;;;;;2611332;54;20415;-75
2022/05/11 03:37:49;;;;;;;5.23;4.40;;;16.60;69.10;;;;;;2610441;47;20439;-72
2022/05/11 03:40:15;;;;;;;8.43;5.03;;;16.70;65.90;;;;;;2611532;54;20167;-75
2022/05/11 03:42:41;;;;;;;7.37;4.87;;;16.80;68.30;;;;;;2611530;39;20558;-73
2022/05/11 03:45:07;;;;;;;4.90;4.40;;;16.70;69.10;;;;;;2613632;47;20404;-83
2022/05/11 03:47:33;;;;;;;5.60;4.50;;;16.70;67.30;;;;;;2614015;54;20386;-84
2022/05/11 03:49:59;;;;;;;5.60;5.10;;;16.70;68.90;;;;;;2614796;54;20421;-85
2022/05/11 03:52:25;;;;;;;5.23;4.70;;;16.80;68.70;;;;;;2614002;54;20390;-84
2022/05/11 03:54:50;;;;;;;5.33;4.40;;;16.70;64.20;;;;;;2611956;54;20179;-77
2022/05/11 03:57:16;;;;;;;4.83;4.40;;;16.70;65.60;;;;;;2611050;47;20413;-77
2022/05/11 03:59:42;;;;;;;3.90;3.60;;;16.90;63.20;;;;;;2616525;54;20148;-76
2022/05/11 04:02:08;;;;;;;5.10;4.70;;;16.90;63.10;;;;;;2610336;54;20187;-76
2022/05/11 04:04:34;;;;;;;5.37;3.90;;;16.80;63.00;;;;;;2612519;54;20172;-76
2022/05/11 04:06:59;;;;;;;12.87;4.70;;;16.80;63.80;;;;;;2610688;54;20152;-76
2022/05/11 04:09:25;;;;;;;5.57;5.07;;;16.80;63.50;;;;;;2612534;39;20791;-74
2022/05/11 04:11:51;;;;;;;5.63;4.30;;;16.80;65.50;;;;;;2613085;54;20172;-76
2022/05/11 04:14:17;;;;;;;10.80;4.70;;;16.80;63.30;;;;;;2612472;54;20196;-72
2022/05/11 04:16:43;;;;;;;8.53;5.40;;;16.80;64.90;;;;;;2610229;39;20635;-72
2022/05/11 04:19:09;;;;;;;7.33;4.60;;;16.90;64.10;;;;;;2611954;54;20150;-73
2022/05/11 04:21:35;;;;;;;4.97;4.53;;;16.80;60.30;;;;;;2611012;54;20401;-73
2022/05/11 04:24:04;;;;;;;4.90;3.90;;;16.80;60.10;;;;;;2611848;54;20454;-83
2022/05/11 04:26:32;;;;;;;4.53;3.80;;;16.90;59.20;;;;;;2616348;54;20144;-84
2022/05/11 04:29:00;;;;;;;4.83;4.43;;;17.10;58.30;;;;;;2615066;46;20404;-78
2022/05/11 04:31:25;;;;;;;9.13;4.67;;;17.10;58.70;;;;;;2611841;54;20507;-77
2022/05/11 04:33:51;;;;;;;6.63;4.07;;;17.00;58.40;;;;;;2612045;54;20476;-73
2022/05/11 04:36:17;;;;;;;4.07;3.53;;;17.10;57.50;;;;;;2611282;54;20159;-74
2022/05/11 04:38:43;;;;;;;7.67;4.00;;;17.10;57.70;;;;;;2613345;54;20155;-80
2022/05/11 04:41:09;;;;;;;7.60;4.60;;;17.00;58.30;;;;;;2623075;54;20147;-81
2022/05/11 04:43:35;;;;;;;8.87;4.90;;;16.90;58.60;;;;;;2620645;47;20154;-78
2022/05/11 04:46:01;;;;;;;4.53;4.13;;;16.80;59.60;;;;;;2618753;54;20394;-80
2022/05/11 04:48:27;;;;;;;4.83;4.30;;;16.80;58.50;;;;;;2617386;51;20164;-73
2022/05/11 04:50:58;;;;;;;6.20;4.07;;;16.80;57.90;;;;;;2610459;54;20399;-74
2022/05/11 04:53:24;;;;;;;5.63;5.03;;;16.80;57.00;;;;;;2611641;54;20156;-77
2022/05/11 04:55:50;;;;;;;6.07;4.70;;;16.80;57.70;;;;;;2612476;54;21478;-75
2022/05/11 04:58:16;;;;;;;4.77;4.30;;;16.80;58.00;;;;;;2612214;54;20396;-79
2022/05/11 05:01:07;;;;;;;5.20;4.70;;;16.80;57.80;;;;;;2614179;54;20135;-79
2022/05/11 05:03:33;;;;;;;4.10;3.80;;;16.90;58.00;;;;;;2612136;54;20420;-80
2022/05/11 05:05:59;;;;;;;5.80;5.00;;;17.00;57.40;;;;;;2612640;39;20557;-80
2022/05/11 05:08:25;;;;;;;8.13;5.40;;;17.10;57.40;;;;;;2617614;54;20395;-77
2022/05/11 05:10:51;;;;;;;5.90;3.97;;;17.20;56.50;;;;;;2609879;54;20244;-77
2022/05/11 05:13:16;;;;;;;8.47;4.63;;;17.30;55.20;;;;;;2610284;47;20155;-77
2022/05/11 05:15:42;;;;;;;5.07;4.57;;;17.50;54.20;;;;;;2609426;54;20177;-82
2022/05/11 05:18:08;;;;;;;6.07;4.80;;;17.60;52.50;;;;;;2609346;47;20247;-81
2022/05/11 05:20:35;;;;;;;4.97;4.47;;;17.50;51.60;;;;;;2609128;54;20390;-79
2022/05/11 05:23:01;;;;;;;8.60;5.00;;;17.50;50.80;;;;;;2611051;54;20394;-79
2022/05/11 05:25:27;;;;;;;6.03;4.60;;;17.60;50.40;;;;;;2611454;54;20404;-81
2022/05/11 05:31:04;;;;;;;5.40;4.40;;;17.80;49.40;;;;;;2612205;39;20877;-81
2022/05/11 05:33:27;;;;;;;5.53;4.40;;;17.90;47.90;;;;;;2612563;54;20397;-79
2022/05/11 05:35:52;;;;;;;4.80;4.33;;;18.00;46.50;;;;;;2611178;54;21210;-79
2022/05/11 05:38:18;;;;;;;7.63;4.00;;;18.10;44.30;;;;;;2611782;39;20544;-73
2022/05/11 05:40:46;;;;;;;4.90;4.40;;;18.30;43.10;;;;;;2611060;47;20149;-74
2022/05/11 05:43:12;;;;;;;5.20;4.70;;;18.40;42.00;;;;;;2611851;54;20385;-74
2022/05/11 05:45:38;;;;;;;4.40;4.10;;;18.50;42.80;;;;;;2610943;47;21292;-74
2022/05/11 05:48:04;;;;;;;8.13;4.23;;;18.60;40.50;;;;;;2611490;54;20398;-73
2022/05/11 05:50:30;;;;;;;5.47;4.17;;;18.70;40.40;;;;;;2612102;54;20434;-82
2022/05/11 05:52:56;;;;;;;7.97;5.10;;;18.80;41.00;;;;;;2631304;36;21041;-83
2022/05/11 05:55:22;;;;;;;5.20;4.70;;;18.80;41.50;;;;;;2613795;54;20418;-82
2022/05/11 05:57:48;;;;;;;7.20;4.90;;;18.50;45.10;;;;;;2613234;39;20192;-82
2022/05/11 06:00:15;;;;;;;10.63;5.47;;;18.70;45.70;;;;;;2612687;39;21003;-77
2022/05/11 06:02:41;;;;;;;10.20;5.10;;;18.90;43.90;;;;;;2610115;54;20458;-77
2022/05/11 06:05:07;;;;;;;7.37;4.53;;;19.20;42.10;;;;;;2611232;54;20398;-82
2022/05/11 06:07:33;;;;;;;4.37;3.97;;;19.40;42.50;;;;;;2611951;54;20685;-83
2022/05/11 06:09:59;;;;;;;6.50;4.63;;;19.90;39.40;;;;;;2613935;54;20391;-83
2022/05/11 06:12:25;;;;;;;6.43;5.30;;;20.30;32.50;;;;;;2613304;54;20413;-83
2022/05/11 06:14:51;;;;;;;4.93;3.90;;;20.60;26.80;;;;;;2612161;54;20158;-82
2022/05/11 06:17:23;;;;;;;5.33;4.83;;;20.80;24.50;;;;;;2612622;54;20205;-84
2022/05/11 06:19:50;;;;;;;4.30;4.00;;;21.20;21.70;;;;;;2612529;54;20492;-75
2022/05/11 06:22:17;;;;;;;5.47;4.90;;;21.70;18.80;;;;;;2611631;54;20399;-74
2022/05/11 06:24:42;;;;;;;5.10;4.70;;;22.30;13.80;;;;;;2611434;54;20494;-74
2022/05/11 06:27:15;;;;;;;11.03;5.00;;;22.50;10.80;;;;;;2611505;54;20403;-74
2022/05/11 06:29:41;;;;;;;7.90;5.23;;;22.80;9.30;;;;;;2612654;54;20174;-78
2022/05/11 06:32:08;;;;;;;5.60;5.10;;;22.90;7.10;;;;;;2611985;47;20403;-79
2022/05/11 06:34:34;;;;;;;6.13;5.30;;;22.90;6.40;;;;;;2613027;54;20419;-76
2022/05/11 06:36:59;;;;;;;5.90;5.50;;;23.20;5.70;;;;;;2611409;51;20491;-76
2022/05/11 06:39:26;;;;;;;8.37;6.50;;;23.40;5.90;;;;;;2613278;47;20930;-79
2022/05/11 06:41:51;;;;;;;7.47;6.70;;;23.30;4.10;;;;;;2612004;54;20150;-79
2022/05/11 06:44:17;;;;;;;8.40;6.90;;;22.90;6.30;;;;;;2612134;54;20507;-77
2022/05/11 06:46:44;;;;;;;8.90;8.20;;;23.20;5.70;;;;;;2612085;51;20691;-78
2022/05/11 06:49:10;;;;;;;7.73;7.03;;;23.10;6.30;;;;;;2613098;54;20391;-78
2022/05/11 06:51:36;;;;;;;7.83;7.03;;;23.10;5.70;;;;;;2610907;54;20487;-77
2022/05/11 06:59:33;;;;;;;10.57;9.40;;;23.00;5.30;;;;;;2612363;54;20511;-78
2022/05/11 07:02:03;;;;;;;11.63;8.80;;;23.10;4.70;;;;;;2613483;47;20393;-77
2022/05/11 07:04:33;;;;;;;9.43;8.53;;;23.10;4.50;;;;;;2613059;54;20400;-78
2022/05/11 07:07:00;;;;;;;13.47;8.70;;;23.00;3.60;;;;;;2611980;54;20430;-78
2022/05/11 07:09:31;;;;;;;9.67;8.77;;;23.00;4.10;;;;;;2612884;54;20472;-76
2022/05/11 07:14:41;;;;;;;14.07;9.30;;;23.10;2.80;;;;;;2612803;54;20430;-79
2022/05/11 07:17:07;;;;;;;10.20;8.97;;;23.30;3.20;;;;;;2612312;47;20411;-78
2022/05/11 07:19:34;;;;;;;9.27;7.87;;;23.60;2.40;;;;;;2612729;54;20158;-79
2022/05/11 07:22:01;;;;;;;10.23;9.07;;;23.50;1.30;;;;;;2612078;54;20449;-78
2022/05/11 07:24:27;;;;;;;10.30;9.30;;;23.60;1.00;;;;;;2612805;46;20412;-80
2022/05/11 07:26:54;;;;;;;14.00;8.77;;;23.40;1.00;;;;;;2612046;47;20414;-79
2022/05/11 07:29:20;;;;;;;16.50;9.60;;;23.40;1.00;;;;;;2612743;54;20286;-72
2022/05/11 07:31:46;;;;;;;12.33;8.60;;;23.50;1.00;;;;;;2611504;47;20375;-74
2022/05/11 07:34:13;;;;;;;10.50;9.30;;;23.60;1.00;;;;;;2611988;54;20154;-74
2022/05/11 07:36:38;;;;;;;10.23;8.90;;;23.20;1.00;;;;;;2610636;54;20408;-75
2022/05/11 07:39:04;;;;;;;12.10;8.73;;;23.00;1.00;;;;;;2612398;54;20426;-73
2022/05/11 07:41:30;;;;;;;7.90;7.20;;;22.80;1.00;;;;;;2610146;54;20146;-74
2022/05/11 07:43:57;;;;;;;8.93;7.70;;;22.90;1.00;;;;;;2613806;54;20380;-86
2022/05/11 07:46:26;;;;;;;9.57;8.60;;;23.20;1.00;;;;;;2620333;54;20930;-88
2022/05/11 07:48:52;;;;;;;14.30;8.10;;;23.40;1.00;;;;;;2616374;54;20415;-76
2022/05/11 07:51:18;;;;;;;8.40;7.10;;;23.50;1.00;;;;;;2611233;54;20963;-75
2022/05/11 07:54:11;;;;;;;10.57;7.03;;;23.50;1.00;;;;;;2611993;47;20691;-81
2022/05/11 08:02:06;;;;;;;7.93;7.13;;;23.30;1.00;;;;;;2617992;54;21004;-81
2022/05/11 08:04:32;;;;;;;11.17;7.40;;;23.60;1.00;;;;;;2612654;39;20790;-73
2022/05/11 08:06:59;;;;;;;9.60;7.83;;;23.60;1.00;;;;;;2609952;54;20406;-73
2022/05/11 08:09:25;;;;;;;7.77;6.97;;;24.00;1.00;;;;;;2610340;51;20554;-77
2022/05/11 08:11:52;;;;;;;7.70;6.90;;;23.90;1.00;;;;;;2610172;51;21090;-75
2022/05/11 08:14:18;;;;;;;7.57;6.87;;;24.00;1.00;;;;;;2610151;54;20539;-73
2022/05/11 08:16:44;;;;;;;9.70;6.53;;;24.00;1.00;;;;;;2609670;54;20416;-74
2022/05/11 08:19:12;;;;;;;5.80;5.30;;;24.10;1.00;;;;;;2610778;54;20952;-79
2022/05/11 08:21:37;;;;;;;7.57;4.47;;;24.20;1.00;;;;;;2610142;54;20398;-79
2022/05/11 08:24:04;;;;;;;5.40;4.90;;;24.50;1.00;;;;;;2609786;54;20391;-79
2022/05/11 08:26:30;;;;;;;7.90;4.47;;;24.50;1.00;;;;;;2609904;54;20726;-78
2022/05/11 08:28:55;;;;;;;6.37;4.60;;;24.20;1.00;;;;;;2609683;54;20420;-78
2022/05/11 08:34:06;;;;;;;7.73;4.40;;;23.90;1.00;;;;;;2611395;39;20587;-76
2022/05/11 08:36:32;;;;;;;4.40;3.80;;;24.10;1.00;;;;;;2612010;54;20410;-77
2022/05/11 08:39:00;;;;;;;5.57;4.10;;;24.10;1.00;;;;;;2611674;54;20406;-84
2022/05/11 08:41:45;;;;;;;6.27;4.50;;;24.50;1.00;;;;;;2612524;54;20379;-84
2022/05/11 08:44:15;;;;;;;5.13;4.63;;;25.20;1.00;;;;;;2613875;54;20994;-76
2022/05/11 08:47:00;;;;;;;4.53;4.23;;;25.60;1.00;;;;;;2611159;54;20418;-79
2022/05/11 08:49:44;;;;;;;5.30;4.30;;;25.20;1.00;;;;;;2612043;39;20762;-82
2022/05/11 08:52:33;;;;;;;5.90;3.73;;;24.90;1.00;;;;;;2612143;39;20787;-80
2022/05/11 08:55:23;;;;;;;7.07;4.53;;;24.80;1.00;;;;;;2612231;54;20422;-80
2022/05/11 08:57:50;;;;;;;7.47;4.50;;;24.80;1.00;;;;;;2612541;39;20861;-83
2022/05/11 09:00:18;;;;;;;4.40;4.10;;;24.60;1.00;;;;;;2613653;54;20404;-83
2022/05/11 09:03:10;;;;;;;7.50;5.13;;;24.70;1.00;;;;;;2612851;54;20396;-83
2022/05/11 09:05:36;;;;;;;4.37;4.00;;;25.00;1.00;;;;;;2610694;54;20402;-73
2022/05/11 09:08:06;;;;;;;5.13;4.53;;;25.30;1.00;;;;;;2611989;54;20407;-73
2022/05/11 09:10:37;;;;;;;6.43;4.93;;;25.50;1.00;;;;;;2611790;54;20659;-73
2022/05/11 09:13:13;;;;;;;5.10;4.70;;;25.30;1.00;;;;;;2612110;39;20740;-72
2022/05/11 09:15:53;;;;;;;4.20;3.90;;;25.00;1.00;;;;;;2612207;39;21087;-73
2022/05/11 09:18:19;;;;;;;4.77;4.47;;;24.70;1.00;;;;;;2611960;46;20399;-75
2022/05/11 09:20:52;;;;;;;4.30;4.00;;;25.00;1.00;;;;;;2611765;54;20386;-75
2022/05/11 09:23:31;;;;;;;4.67;4.27;;;24.50;1.00;;;;;;2611834;54;20419;-72
2022/05/11 09:26:03;;;;;;;5.37;4.97;;;24.20;1.00;;;;;;2613300;39;20718;-73
2022/05/11 09:28:31;;;;;;;4.53;4.20;;;24.30;1.00;;;;;;2612924;54;20962;-82
2022/05/11 09:31:03;;;;;;;4.90;4.50;;;24.80;1.00;;;;;;2612803;54;20403;-80
2022/05/11 09:33:32;;;;;;;5.00;4.60;;;24.90;1.00;;;;;;2613446;54;20937;-77
2022/05/11 09:36:02;;;;;;;7.37;4.33;;;24.80;1.00;;;;;;2610334;54;20411;-74
2022/05/11 09:38:36;;;;;;;4.93;4.50;;;25.10;1.00;;;;;;2611752;54;20371;-77
2022/05/11 09:41:11;;;;;;;11.20;5.07;;;25.10;1.00;;;;;;2612638;54;20394;-80
2022/05/11 09:43:46;;;;;;;6.00;4.20;;;24.90;1.00;;;;;;2612896;54;20417;-75
2022/05/11 09:46:20;;;;;;;5.10;4.70;;;25.20;1.00;;;;;;2612447;54;20483;-73
2022/05/11 09:49:09;;;;;;;5.07;4.67;;;25.60;1.00;;;;;;2611383;54;20426;-72
2022/05/11 09:51:49;;;;;;;6.90;4.57;;;25.90;1.00;;;;;;2612117;54;20430;-72
2022/05/11 09:54:18;;;;;;;4.40;4.10;;;25.70;1.00;;;;;;2612339;39;20805;-74
2022/05/11 09:56:49;;;;;;;8.67;5.10;;;25.50;1.00;;;;;;2610738;54;20383;-74
2022/05/11 09:59:32;;;;;;;5.90;5.40;;;26.00;1.00;;;;;;2611949;54;20457;-74
2022/05/11 10:02:04;;;;;;;7.63;4.40;;;25.80;1.00;;;;;;2611236;54;20379;-73
2022/05/11 10:05:01;;;;;;;5.93;5.33;;;25.50;1.00;;;;;;2611922;54;20434;-85
2022/05/11 10:07:36;;;;;;;5.90;5.40;;;25.80;1.00;;;;;;2613427;54;20517;-83
2022/05/11 10:10:12;;;;;;;6.53;5.97;;;25.70;1.00;;;;;;2613236;54;20443;-76
2022/05/11 10:12:41;;;;;;;5.73;5.33;;;25.50;1.00;;;;;;2612250;54;20386;-78
2022/05/11 10:21:50;;;;;;;5.93;5.53;;;25.90;1.00;;;;;;2612323;54;20407;-75
2022/05/11 10:24:38;;;;;;;7.00;5.87;;;25.60;1.00;;;;;;2611363;54;20422;-73
2022/05/11 10:27:09;;;;;;;6.27;5.77;;;25.80;1.00;;;;;;2611917;54;21538;-74
2022/05/11 10:30:02;;;;;;;6.53;5.83;;;25.80;1.00;;;;;;2612419;54;20511;-79
2022/05/11 10:32:32;;;;;;;6.30;5.80;;;25.70;1.00;;;;;;2613603;39;20780;-79
2022/05/11 10:35:15;;;;;;;6.17;5.77;;;26.10;1.00;;;;;;2612345;54;20407;-73
2022/05/11 10:38:16;;;;;;;7.50;5.30;;;26.30;1.00;;;;;;2611472;54;21082;-75
2022/05/11 10:41:12;;;;;;;6.60;4.83;;;26.40;1.00;;;;;;2611200;54;20442;-75
2022/05/11 10:44:02;;;;;;;12.70;6.23;;;26.20;1.00;;;;;;2611737;54;20396;-77
2022/05/11 10:46:40;;;;;;;5.57;5.10;;;26.10;1.00;;;;;;2611859;54;20399;-78
2022/05/11 10:49:15;;;;;;;6.83;5.80;;;26.20;1.00;;;;;;2611538;54;20410;-73
2022/05/11 10:51:41;;;;;;;6.03;5.57;;;25.80;1.00;;;;;;2611584;54;20407;-73
2022/05/11 10:54:30;;;;;;;8.87;6.40;;;25.80;1.00;;;;;;2611280;54;20454;-77
2022/05/11 10:57:20;;;;;;;5.17;4.70;;;25.60;1.00;;;;;;2611047;54;20164;-79
2022/05/11 11:00:03;;;;;;;8.37;5.40;;;25.90;1.00;;;;;;2612951;54;20426;-79
2022/05/11 11:03:14;;;;;;;6.20;5.53;;;26.10;1.00;;;;;;2612593;54;20400;-77
2022/05/11 11:05:40;;;;;;;5.70;5.30;;;26.00;1.00;;;;;;2611771;54;20409;-78
2022/05/11 11:08:31;;;;;;;6.20;5.70;;;26.10;1.00;;;;;;2612357;54;20434;-79
2022/05/11 11:11:06;;;;;;;7.63;5.43;;;26.10;1.00;;;;;;2612048;39;20495;-79
2022/05/11 11:14:00;;;;;;;6.90;5.33;;;26.30;1.00;;;;;;2612604;54;20379;-78
2022/05/11 11:16:33;;;;;;;7.93;5.97;;;26.00;1.00;;;;;;2612709;54;20439;-78
2022/05/11 11:19:00;;;;;;;5.30;4.90;;;26.30;1.00;;;;;;2612213;54;20391;-73
2022/05/11 11:21:26;;;;;;;9.87;6.37;;;26.70;1.00;;;;;;2611709;54;20391;-74
2022/05/11 11:24:22;;;;;;;6.37;5.57;;;26.60;1.00;;;;;;2611643;54;20403;-73
2022/05/11 11:27:03;;;;;;;5.93;4.70;;;26.60;1.00;;;;;;2611276;54;20400;-72
2022/05/11 11:29:35;;;;;;;5.97;5.47;;;26.70;1.00;;;;;;2611309;39;21053;-72
2022/05/11 11:32:04;;;;;;;5.93;5.43;;;26.20;1.00;;;;;;2611952;54;20391;-72
2022/05/11 11:34:36;;;;;;;5.53;5.03;;;26.30;1.00;;;;;;2612073;54;20518;-79
2022/05/11 11:37:29;;;;;;;6.83;5.20;;;26.50;1.00;;;;;;2612092;54;20404;-79
2022/05/11 11:40:19;;;;;;;7.80;5.40;;;26.50;1.00;;;;;;2612163;54;20406;-77
2022/05/11 11:42:46;;;;;;;5.53;5.00;;;26.30;1.00;;;;;;2612096;54;20382;-78
2022/05/11 11:45:39;;;;;;;5.13;4.73;;;26.60;1.00;;;;;;2612370;54;20556;-81
2022/05/11 11:48:21;;;;;;;6.27;5.67;;;26.50;1.00;;;;;;2612377;54;20466;-80
2022/05/11 11:50:49;;;;;;;7.17;5.70;;;26.50;1.00;;;;;;2611459;47;20407;-78
2022/05/11 11:53:27;;;;;;;7.23;5.20;;;26.30;1.00;;;;;;2613177;39;20762;-80
2022/05/11 11:55:53;;;;;;;7.80;5.57;;;26.30;1.00;;;;;;2612012;54;20384;-79
2022/05/11 11:58:32;;;;;;;5.10;4.70;;;26.40;1.00;;;;;;2611850;54;20438;-78
2022/05/11 12:01:11;;;;;;;5.60;5.10;;;26.40;1.00;;;;;;2611829;39;20753;-77
2022/05/11 12:03:51;;;;;;;5.47;4.97;;;26.50;1.00;;;;;;2611865;54;20419;-73
2022/05/11 12:17:29;;;;;;;5.07;4.67;;;26.90;1.00;;;;;;2610885;54;20424;-75
2022/05/11 12:20:04;;;;;;;4.70;4.30;;;26.70;1.00;;;;;;2611950;47;20920;-82
2022/05/11 12:22:31;;;;;;;7.73;5.23;;;26.70;1.00;;;;;;2613816;54;20480;-82
2022/05/11 12:25:01;;;;;;;8.23;4.97;;;27.20;1.00;;;;;;2612389;39;21131;-74
2022/05/11 12:27:36;;;;;;;5.70;5.07;;;27.10;1.00;;;;;;2610801;47;20395;-74
2022/05/11 12:30:15;;;;;;;4.50;4.10;;;27.20;1.00;;;;;;2614843;54;20423;-83
2022/05/11 12:32:50;;;;;;;7.83;4.93;;;27.30;1.00;;;;;;2614928;54;20403;-82
2022/05/11 12:35:42;;;;;;;9.03;5.20;;;27.10;1.00;;;;;;2612392;54;20446;-73
2022/05/11 12:38:11;;;;;;;8.33;4.87;;;27.30;1.00;;;;;;2613166;46;20383;-73
2022/05/11 12:40:47;;;;;;;5.63;5.10;;;27.80;1.00;;;;;;2613442;54;20373;-70
2022/05/11 12:43:26;;;;;;;7.43;4.67;;;27.90;1.00;;;;;;2612955;54;20437;-72
2022/05/11 12:45:56;;;;;;;5.37;4.87;;;27.70;1.00;;;;;;2615878;54;20495;-78
2022/05/11 12:48:25;;;;;;;9.37;5.10;;;27.50;1.00;;;;;;2614792;54;20396;-75
2022/05/11 12:51:07;;;;;;;5.20;4.70;;;27.30;1.00;;;;;;2611965;54;20395;-73
2022/05/11 12:53:37;;;;;;;5.80;5.27;;;27.20;1.00;;;;;;2613553;54;20548;-77
2022/05/11 12:56:10;;;;;;;5.40;4.90;;;27.00;1.00;;;;;;2616849;39;20603;-78
2022/05/11 12:58:43;;;;;;;5.40;5.03;;;27.30;1.00;;;;;;2621788;54;20398;-81
2022/05/11 13:01:13;;;;;;;5.60;5.10;;;27.40;1.00;;;;;;2618087;54;20380;-78
2022/05/11 13:03:38;;;;;;;5.43;4.50;;;27.50;1.00;;;;;;2613706;54;20383;-78
2022/05/11 13:06:21;;;;;;;6.20;4.37;;;27.70;1.00;;;;;;2614056;54;20953;-80
2022/05/11 13:08:49;;;;;;;6.43;4.40;;;28.10;1.00;;;;;;2614774;54;20146;-79
2022/05/11 13:11:18;;;;;;;5.07;4.57;;;27.80;1.00;;;;;;2613358;54;20446;-83
2022/05/11 13:13:47;;;;;;;5.57;4.27;;;27.30;1.00;;;;;;2614317;54;20371;-81
2022/05/11 13:16:21;;;;;;;9.20;4.70;;;27.20;1.00;;;;;;2612966;54;20431;-77
2022/05/11 13:18:47;;;;;;;6.83;4.87;;;27.10;1.00;;;;;;2612921;54;20370;-74
2022/05/11 13:21:14;;;;;;;5.97;4.50;;;27.00;1.00;;;;;;2611617;47;20401;-75
2022/05/11 13:23:50;;;;;;;5.80;4.63;;;27.30;1.00;;;;;;2614236;39;20853;-82
2022/05/11 13:26:41;;;;;;;8.30;4.57;;;27.40;1.00;;;;;;2612373;54;20391;-79
2022/05/11 13:29:27;;;;;;;5.17;4.77;;;27.40;1.00;;;;;;2614544;54;20400;-82
2022/05/11 13:32:09;;;;;;;5.70;5.30;;;27.00;1.00;;;;;;2613606;54;20524;-83
2022/05/11 13:34:41;;;;;;;5.93;5.27;;;27.00;1.00;;;;;;2613615;54;20422;-79
2022/05/11 13:37:33;;;;;;;7.93;5.67;;;27.30;1.00;;;;;;2613159;54;20395;-82
2022/05/11 13:39:59;;;;;;;5.50;4.90;;;27.30;1.00;;;;;;2613084;54;20418;-81
2022/05/11 13:42:28;;;;;;;7.47;5.10;;;27.60;1.00;;;;;;2613171;54;20380;-80
2022/05/11 13:45:04;;;;;;;6.50;4.90;;;28.00;1.00;;;;;;2613842;54;20147;-82
2022/05/11 13:50:29;;;;;;;6.30;5.33;;;27.90;1.00;;;;;;2612316;54;20447;-79
2022/05/11 13:52:58;;;;;;;5.73;5.33;;;27.90;1.00;;;;;;2612390;54;20484;-82
2022/05/11 13:55:33;;;;;;;7.57;5.00;;;28.00;1.00;;;;;;2613666;54;20866;-83
2022/05/11 13:58:22;;;;;;;5.90;5.50;;;27.90;1.00;;;;;;2613134;54;20423;-79